Time;durP1;ratioP1;P1;durP2;ratioP2;P2;SDS_P1;SDS_P2;PMS_P1;PMS_P2;Temp;Humidity;BMP_temperature;BMP_pressure;BME280_temperature;BME280_humidity;BME280_pressure;Samples;Min_cycle;Max_cycle;Signal;HPM_P1;HPM_P2
2021/04/30 00:02:11;;;;;;;;;;;20.30;50.50;;;;;;5035511;28;20007;-67
2021/04/30 00:04:37;;;;;;;;;;;20.40;50.60;;;;;;5024454;28;20469;-66
2021/04/30 00:07:02;;;;;;;;;;;20.40;50.50;;;;;;5044107;28;19925;-65
2021/04/30 00:09:28;;;;;;;;;;;20.30;50.50;;;;;;5040158;28;20730;-67
2021/04/30 00:11:53;;;;;;;;;;;20.30;50.40;;;;;;5033981;28;19924;-67
2021/04/30 00:14:20;;;;;;;;;;;20.40;50.40;;;;;;5027665;28;19917;-67
2021/04/30 00:16:45;;;;;;;;;;;20.30;50.40;;;;;;5038465;28;20536;-67
2021/04/30 00:19:10;;;;;;;;;;;20.30;50.30;;;;;;5024601;28;19924;-66
2021/04/30 00:21:37;;;;;;;;;;;20.30;50.30;;;;;;5037845;28;19929;-67
2021/04/30 00:24:03;;;;;;;;;;;20.30;50.30;;;;;;5029875;28;19917;-66
2021/04/30 00:26:29;;;;;;;;;;;20.30;50.30;;;;;;5033701;28;20020;-65
2021/04/30 00:28:54;;;;;;;;;;;20.30;50.30;;;;;;5036393;28;19922;-67
2021/04/30 00:31:20;;;;;;;;;;;20.30;50.30;;;;;;5037335;28;19921;-67
2021/04/30 00:33:45;;;;;;;;;;;20.30;50.20;;;;;;5025347;28;19977;-65
2021/04/30 00:36:10;;;;;;;;;;;20.30;50.20;;;;;;5026819;28;19924;-65
2021/04/30 00:38:36;;;;;;;;;;;20.30;50.20;;;;;;5031047;28;19990;-67
2021/04/30 00:41:01;;;;;;;;;;;20.30;50.20;;;;;;5024290;28;19928;-64
2021/04/30 00:43:27;;;;;;;;;;;20.30;50.20;;;;;;5021598;28;19918;-67
2021/04/30 00:45:53;;;;;;;;;;;20.30;50.20;;;;;;5031677;28;20125;-67
2021/04/30 00:48:19;;;;;;;;;;;20.30;50.10;;;;;;5034634;28;19917;-68
2021/04/30 00:50:45;;;;;;;;;;;20.30;50.10;;;;;;5032003;28;19917;-66
2021/04/30 00:53:10;;;;;;;;;;;20.30;50.10;;;;;;5037123;28;19921;-67
2021/04/30 00:55:37;;;;;;;;;;;20.30;50.10;;;;;;5027353;28;19917;-67
2021/04/30 00:58:02;;;;;;;;;;;20.30;50.00;;;;;;5025879;28;19921;-67
2021/04/30 01:00:29;;;;;;;;;;;20.30;50.00;;;;;;5007972;28;19977;-67
2021/04/30 01:02:54;;;;;;;;;;;20.30;50.00;;;;;;5019299;28;19917;-67
2021/04/30 01:05:20;;;;;;;;;;;20.30;50.10;;;;;;5020111;28;19924;-64
2021/04/30 01:07:45;;;;;;;;;;;20.30;50.00;;;;;;5024276;28;19920;-64
2021/04/30 01:10:11;;;;;;;;;;;20.30;50.00;;;;;;5038936;28;19924;-67
2021/04/30 01:12:37;;;;;;;;;;;20.30;50.00;;;;;;5024319;28;19917;-66
2021/04/30 01:15:02;;;;;;;;;;;20.30;49.90;;;;;;5046025;28;19928;-68
2021/04/30 01:17:28;;;;;;;;;;;20.30;49.90;;;;;;5040740;28;19970;-68
2021/04/30 01:19:54;;;;;;;;;;;20.30;49.90;;;;;;5026786;28;19918;-67
2021/04/30 01:22:30;;;;;;;;;;;20.20;49.80;;;;;;5042361;28;19917;-67
2021/04/30 01:24:55;;;;;;;;;;;20.30;49.90;;;;;;5011388;28;20030;-67
2021/04/30 01:27:20;;;;;;;;;;;20.30;49.80;;;;;;5046194;28;19936;-68
2021/04/30 01:29:46;;;;;;;;;;;20.30;49.80;;;;;;5039039;28;19920;-66
2021/04/30 01:32:11;;;;;;;;;;;20.30;49.90;;;;;;5042568;28;19977;-68
2021/04/30 01:34:37;;;;;;;;;;;20.20;49.80;;;;;;5012214;28;20287;-67
2021/04/30 01:37:02;;;;;;;;;;;20.20;49.80;;;;;;5026761;28;19925;-67
2021/04/30 01:39:28;;;;;;;;;;;20.20;49.80;;;;;;5024766;28;19967;-67
2021/04/30 01:41:53;;;;;;;;;;;20.20;49.90;;;;;;5039664;28;20326;-67
2021/04/30 01:44:19;;;;;;;;;;;20.20;49.80;;;;;;5027572;28;20008;-67
2021/04/30 01:46:44;;;;;;;;;;;20.20;49.80;;;;;;5007728;28;19921;-68
2021/04/30 01:49:10;;;;;;;;;;;20.20;49.80;;;;;;5039693;28;19924;-67
2021/04/30 01:51:35;;;;;;;;;;;20.20;49.70;;;;;;5028433;28;20337;-67
2021/04/30 01:54:02;;;;;;;;;;;20.20;49.70;;;;;;5043386;28;19921;-67
2021/04/30 01:56:27;;;;;;;;;;;20.20;49.70;;;;;;5027747;28;19971;-67
2021/04/30 01:58:52;;;;;;;;;;;20.20;49.70;;;;;;5023897;28;19921;-67
2021/04/30 02:01:18;;;;;;;;;;;20.20;49.70;;;;;;5036843;28;19917;-67
2021/04/30 02:03:44;;;;;;;;;;;20.20;49.70;;;;;;5037771;28;20595;-67
2021/04/30 02:06:09;;;;;;;;;;;20.20;49.60;;;;;;5026271;28;19982;-66
2021/04/30 02:08:35;;;;;;;;;;;20.20;49.60;;;;;;5035039;28;19917;-67
2021/04/30 02:11:00;;;;;;;;;;;20.20;49.60;;;;;;5034456;28;19939;-62
2021/04/30 02:13:26;;;;;;;;;;;20.20;49.60;;;;;;5021689;28;20289;-67
2021/04/30 02:15:52;;;;;;;;;;;20.20;50.20;;;;;;5038892;28;19921;-65
2021/04/30 02:18:17;;;;;;;;;;;20.20;49.50;;;;;;5038652;28;19921;-66
2021/04/30 02:20:43;;;;;;;;;;;20.20;49.50;;;;;;5027755;28;19979;-68
2021/04/30 02:23:08;;;;;;;;;;;20.20;49.60;;;;;;5024444;28;19957;-67
2021/04/30 02:25:34;;;;;;;;;;;20.20;49.50;;;;;;5032611;28;19932;-66
2021/04/30 02:28:00;;;;;;;;;;;20.20;49.50;;;;;;5042552;28;19932;-67
2021/04/30 02:30:25;;;;;;;;;;;20.20;49.50;;;;;;5038097;28;19917;-67
2021/04/30 02:32:51;;;;;;;;;;;20.20;49.50;;;;;;5040108;28;19921;-67
2021/04/30 02:35:17;;;;;;;;;;;20.20;49.50;;;;;;5041100;28;20284;-67
2021/04/30 02:37:43;;;;;;;;;;;20.20;49.50;;;;;;5028998;28;19928;-66
2021/04/30 02:40:08;;;;;;;;;;;20.20;49.40;;;;;;5027790;28;20305;-67
2021/04/30 02:42:34;;;;;;;;;;;20.20;49.40;;;;;;5043345;28;19917;-67
2021/04/30 02:45:02;;;;;;;;;;;20.20;49.40;;;;;;5027816;28;19923;-67
2021/04/30 02:47:30;;;;;;;;;;;20.10;49.30;;;;;;5036578;28;20354;-68
2021/04/30 02:49:56;;;;;;;;;;;20.20;49.30;;;;;;5030319;28;20063;-66
2021/04/30 02:52:22;;;;;;;;;;;20.20;49.30;;;;;;5037140;28;19921;-67
2021/04/30 02:54:47;;;;;;;;;;;20.20;49.30;;;;;;5040552;28;19917;-67
2021/04/30 02:57:13;;;;;;;;;;;20.20;49.30;;;;;;5025949;28;19931;-67
2021/04/30 02:59:38;;;;;;;;;;;20.10;49.30;;;;;;5041055;28;20287;-67
2021/04/30 03:02:04;;;;;;;;;;;20.10;49.30;;;;;;5035833;28;19917;-67
2021/04/30 03:04:29;;;;;;;;;;;20.10;49.30;;;;;;5040707;28;20341;-66
2021/04/30 03:06:55;;;;;;;;;;;20.10;49.20;;;;;;5022855;28;19924;-66
2021/04/30 03:09:20;;;;;;;;;;;20.10;49.20;;;;;;5025973;28;19946;-66
2021/04/30 03:11:45;;;;;;;;;;;20.10;49.20;;;;;;5008284;28;19925;-64
2021/04/30 03:14:11;;;;;;;;;;;20.10;49.20;;;;;;5025685;28;20306;-66
2021/04/30 03:16:36;;;;;;;;;;;20.10;49.10;;;;;;5023899;28;19929;-67
2021/04/30 03:19:02;;;;;;;;;;;20.10;49.00;;;;;;5025360;28;19917;-67
2021/04/30 03:21:27;;;;;;;;;;;20.10;49.00;;;;;;5022793;28;20442;-67
2021/04/30 03:23:53;;;;;;;;;;;20.10;49.00;;;;;;5033303;28;19916;-67
2021/04/30 03:26:18;;;;;;;;;;;20.10;49.10;;;;;;5040931;28;19924;-67
2021/04/30 03:28:44;;;;;;;;;;;20.10;49.00;;;;;;5040402;28;19917;-67
2021/04/30 03:31:09;;;;;;;;;;;20.10;49.10;;;;;;5025389;28;20325;-67
2021/04/30 03:33:35;;;;;;;;;;;20.10;49.00;;;;;;5037873;28;19917;-66
2021/04/30 03:36:00;;;;;;;;;;;20.10;49.00;;;;;;5023489;28;19996;-67
2021/04/30 03:38:25;;;;;;;;;;;20.10;49.00;;;;;;5024376;28;20556;-67
2021/04/30 03:40:51;;;;;;;;;;;20.10;49.00;;;;;;5037137;28;19921;-67
2021/04/30 03:43:16;;;;;;;;;;;20.10;49.00;;;;;;5036608;28;19916;-67
2021/04/30 03:45:42;;;;;;;;;;;20.10;48.90;;;;;;5039345;28;19924;-67
2021/04/30 03:48:07;;;;;;;;;;;20.10;48.90;;;;;;5023516;28;20439;-67
2021/04/30 03:50:33;;;;;;;;;;;20.10;48.90;;;;;;5022077;28;20527;-67
2021/04/30 03:52:58;;;;;;;;;;;20.10;48.90;;;;;;5035866;28;19920;-68
2021/04/30 03:55:24;;;;;;;;;;;20.10;48.90;;;;;;5031070;28;19917;-67
2021/04/30 03:57:49;;;;;;;;;;;20.10;48.90;;;;;;5023381;28;20392;-67
2021/04/30 04:00:15;;;;;;;;;;;20.10;48.80;;;;;;5037328;28;19932;-67
2021/04/30 04:02:41;;;;;;;;;;;20.10;48.80;;;;;;5039042;28;20047;-66
2021/04/30 04:05:06;;;;;;;;;;;20.10;48.80;;;;;;5036402;28;19970;-67
2021/04/30 04:07:32;;;;;;;;;;;20.10;48.90;;;;;;5029610;28;19917;-67
2021/04/30 04:09:57;;;;;;;;;;;20.00;48.80;;;;;;5031077;28;19964;-67
2021/04/30 04:12:23;;;;;;;;;;;20.10;48.80;;;;;;5036598;28;19927;-67
2021/04/30 04:14:48;;;;;;;;;;;20.10;48.80;;;;;;5030943;28;20332;-66
2021/04/30 04:17:16;;;;;;;;;;;20.10;48.80;;;;;;5032834;28;19920;-67
2021/04/30 04:19:41;;;;;;;;;;;20.10;48.80;;;;;;5034658;28;20540;-66
2021/04/30 04:22:07;;;;;;;;;;;20.10;48.70;;;;;;5033402;28;19944;-65
2021/04/30 04:24:32;;;;;;;;;;;20.10;48.60;;;;;;5021684;28;19917;-67
2021/04/30 04:26:57;;;;;;;;;;;20.10;48.70;;;;;;5033969;28;19925;-65
2021/04/30 04:29:23;;;;;;;;;;;20.10;48.80;;;;;;5032012;28;19966;-66
2021/04/30 04:31:48;;;;;;;;;;;20.10;48.80;;;;;;5029129;28;19921;-66
2021/04/30 04:34:14;;;;;;;;;;;20.10;49.00;;;;;;5027642;28;19917;-66
2021/04/30 04:36:39;;;;;;;;;;;20.10;49.10;;;;;;5023090;28;20393;-65
2021/04/30 04:39:05;;;;;;;;;;;20.10;49.10;;;;;;5020593;28;20059;-66
2021/04/30 04:41:30;;;;;;;;;;;20.10;49.20;;;;;;5026725;28;19916;-66
2021/04/30 04:43:56;;;;;;;;;;;20.10;49.30;;;;;;5035007;28;19978;-67
2021/04/30 04:46:21;;;;;;;;;;;20.10;49.10;;;;;;5034232;28;19971;-67
2021/04/30 04:48:46;;;;;;;;;;;20.10;49.00;;;;;;5026421;28;19924;-67
2021/04/30 04:51:12;;;;;;;;;;;20.10;49.00;;;;;;5037000;28;19917;-66
2021/04/30 04:53:37;;;;;;;;;;;20.10;49.00;;;;;;5025915;28;19921;-65
2021/04/30 04:56:03;;;;;;;;;;;20.10;49.30;;;;;;5040498;28;19917;-67
2021/04/30 04:58:28;;;;;;;;;;;20.10;49.60;;;;;;5041723;28;19985;-65
2021/04/30 05:00:54;;;;;;;;;;;20.10;49.60;;;;;;5025103;28;19921;-67
2021/04/30 05:03:19;;;;;;;;;;;20.00;49.60;;;;;;5039864;28;20625;-67
2021/04/30 05:05:45;;;;;;;;;;;20.00;49.50;;;;;;5025634;28;19921;-64
2021/04/30 05:08:10;;;;;;;;;;;20.10;49.50;;;;;;5027569;28;19963;-65
2021/04/30 05:10:36;;;;;;;;;;;20.00;49.40;;;;;;5035868;28;20490;-68
2021/04/30 05:13:01;;;;;;;;;;;20.00;49.30;;;;;;5034977;28;19931;-69
2021/04/30 05:15:27;;;;;;;;;;;20.10;49.30;;;;;;5023911;28;19942;-67
2021/04/30 05:17:52;;;;;;;;;;;20.10;49.20;;;;;;5021630;28;19928;-65
2021/04/30 05:20:18;;;;;;;;;;;20.00;49.20;;;;;;5036462;28;20134;-66
2021/04/30 05:22:44;;;;;;;;;;;20.00;49.10;;;;;;5022669;28;19917;-66
2021/04/30 05:25:10;;;;;;;;;;;20.00;49.00;;;;;;5025534;28;19916;-67
2021/04/30 05:27:36;;;;;;;;;;;20.00;49.00;;;;;;5027486;28;19944;-67
2021/04/30 05:30:02;;;;;;;;;;;20.00;49.00;;;;;;5041910;28;19917;-66
2021/04/30 05:32:28;;;;;;;;;;;20.00;49.00;;;;;;5024454;28;19925;-66
2021/04/30 05:34:54;;;;;;;;;;;20.00;49.00;;;;;;5039530;28;19925;-66
2021/04/30 05:37:19;;;;;;;;;;;20.00;48.90;;;;;;5037705;28;19932;-66
2021/04/30 05:39:45;;;;;;;;;;;20.00;49.20;;;;;;5033505;28;19921;-66
2021/04/30 05:42:10;;;;;;;;;;;20.00;49.20;;;;;;5033128;28;19924;-66
2021/04/30 05:44:35;;;;;;;;;;;20.00;49.10;;;;;;5037883;28;19952;-66
2021/04/30 05:47:01;;;;;;;;;;;20.00;49.10;;;;;;5024584;28;19924;-66
2021/04/30 05:49:27;;;;;;;;;;;20.00;49.20;;;;;;5021509;28;19921;-65
2021/04/30 05:51:53;;;;;;;;;;;20.00;49.50;;;;;;5022626;28;20001;-65
2021/04/30 05:54:18;;;;;;;;;;;20.00;49.60;;;;;;5031462;28;19921;-68
2021/04/30 05:56:43;;;;;;;;;;;20.00;49.70;;;;;;5024541;28;19917;-67
2021/04/30 05:59:09;;;;;;;;;;;20.00;49.80;;;;;;5038980;28;20412;-63
2021/04/30 06:01:34;;;;;;;;;;;20.00;49.80;;;;;;5043895;28;19916;-66
2021/04/30 06:04:00;;;;;;;;;;;20.00;49.90;;;;;;5024135;28;20352;-65
2021/04/30 06:06:25;;;;;;;;;;;20.00;49.90;;;;;;5035843;28;19961;-66
2021/04/30 06:08:51;;;;;;;;;;;20.00;49.90;;;;;;5030202;28;19987;-66
2021/04/30 06:11:16;;;;;;;;;;;20.00;49.90;;;;;;5046157;28;20393;-66
2021/04/30 06:13:42;;;;;;;;;;;19.90;49.70;;;;;;5040472;28;19921;-66
2021/04/30 06:16:07;;;;;;;;;;;20.00;49.70;;;;;;5040632;28;19917;-68
2021/04/30 06:18:33;;;;;;;;;;;20.00;49.70;;;;;;5027568;28;20400;-67
2021/04/30 06:20:58;;;;;;;;;;;20.00;49.60;;;;;;5041296;28;19917;-66
2021/04/30 06:23:24;;;;;;;;;;;20.00;49.60;;;;;;5031046;28;19917;-67
2021/04/30 06:25:49;;;;;;;;;;;20.00;49.60;;;;;;5035482;28;19923;-67
2021/04/30 06:28:15;;;;;;;;;;;20.00;49.60;;;;;;5039020;28;19920;-67
2021/04/30 06:30:40;;;;;;;;;;;20.00;49.70;;;;;;5036059;28;19924;-66
2021/04/30 06:33:09;;;;;;;;;;;19.90;49.70;;;;;;5030406;28;19939;-66
2021/04/30 06:35:35;;;;;;;;;;;20.00;49.90;;;;;;5042517;28;19940;-66
2021/04/30 06:38:00;;;;;;;;;;;19.90;50.10;;;;;;5058990;28;19925;-67
2021/04/30 06:40:26;;;;;;;;;;;19.90;50.50;;;;;;5039036;28;19971;-68
2021/04/30 06:42:51;;;;;;;;;;;19.90;50.70;;;;;;5027033;28;19960;-66
2021/04/30 06:45:16;;;;;;;;;;;19.80;50.70;;;;;;5040488;28;19921;-68
2021/04/30 06:47:42;;;;;;;;;;;19.80;50.90;;;;;;5035345;28;19917;-68
2021/04/30 06:50:08;;;;;;;;;;;19.80;51.00;;;;;;5037210;28;19928;-67
2021/04/30 06:52:33;;;;;;;;;;;19.80;51.10;;;;;;5039429;28;19964;-67
2021/04/30 06:54:59;;;;;;;;;;;19.70;51.20;;;;;;5026844;28;19939;-67
2021/04/30 06:57:25;;;;;;;;;;;19.70;51.10;;;;;;5026316;28;19925;-67
2021/04/30 06:59:50;;;;;;;;;;;19.70;51.20;;;;;;5025724;28;19936;-67
2021/04/30 07:02:15;;;;;;;;;;;19.70;51.10;;;;;;5032427;28;19917;-66
2021/04/30 07:04:41;;;;;;;;;;;19.70;51.10;;;;;;5024837;28;20380;-66
2021/04/30 07:07:06;;;;;;;;;;;19.70;51.00;;;;;;5032799;28;19924;-68
2021/04/30 07:09:32;;;;;;;;;;;19.70;51.00;;;;;;5039115;28;19931;-67
2021/04/30 07:11:57;;;;;;;;;;;19.70;50.90;;;;;;5026667;28;19921;-67
2021/04/30 07:14:23;;;;;;;;;;;19.70;50.80;;;;;;5032289;28;19913;-67
2021/04/30 07:16:48;;;;;;;;;;;19.80;50.80;;;;;;5038081;28;19924;-67
2021/04/30 07:19:14;;;;;;;;;;;19.70;50.70;;;;;;5037741;28;19924;-67
2021/04/30 07:21:39;;;;;;;;;;;19.80;50.70;;;;;;5025785;28;19913;-67
2021/04/30 07:24:05;;;;;;;;;;;19.80;50.70;;;;;;5037627;28;20383;-66
2021/04/30 07:26:31;;;;;;;;;;;19.70;50.50;;;;;;5026935;28;19913;-66
2021/04/30 07:28:56;;;;;;;;;;;19.80;50.50;;;;;;5023673;28;19919;-66
2021/04/30 07:31:22;;;;;;;;;;;19.80;50.40;;;;;;5033747;28;20380;-66
2021/04/30 07:33:48;;;;;;;;;;;19.80;50.40;;;;;;5028313;28;20307;-67
2021/04/30 07:36:14;;;;;;;;;;;19.80;50.30;;;;;;5043920;28;19935;-67
2021/04/30 07:38:39;;;;;;;;;;;19.90;50.40;;;;;;5026051;28;19960;-67
2021/04/30 07:41:10;;;;;;;;;;;19.90;50.30;;;;;;5026021;28;19918;-64
2021/04/30 07:43:36;;;;;;;;;;;19.80;50.20;;;;;;5025266;28;20062;-67
2021/04/30 07:46:01;;;;;;;;;;;19.90;50.20;;;;;;5031481;28;19917;-67
2021/04/30 07:48:27;;;;;;;;;;;19.90;50.20;;;;;;5023772;28;20384;-66
2021/04/30 07:50:53;;;;;;;;;;;19.90;50.20;;;;;;5024665;28;19917;-66
2021/04/30 07:53:18;;;;;;;;;;;19.90;50.10;;;;;;5023955;28;19979;-67
2021/04/30 07:55:44;;;;;;;;;;;19.90;50.10;;;;;;5023613;28;19913;-67
2021/04/30 07:58:09;;;;;;;;;;;19.90;50.10;;;;;;5028903;28;19924;-66
2021/04/30 08:00:34;;;;;;;;;;;19.90;50.10;;;;;;5034803;28;20185;-66
2021/04/30 08:03:00;;;;;;;;;;;19.90;50.10;;;;;;5042344;28;20328;-66
2021/04/30 08:05:25;;;;;;;;;;;19.90;50.00;;;;;;5024468;28;19913;-66
2021/04/30 08:07:51;;;;;;;;;;;19.90;50.00;;;;;;5020794;28;20380;-66
2021/04/30 08:10:16;;;;;;;;;;;20.00;50.00;;;;;;5007512;28;20426;-66
2021/04/30 08:12:42;;;;;;;;;;;19.90;49.90;;;;;;5022660;28;19953;-67
2021/04/30 08:15:08;;;;;;;;;;;20.00;49.90;;;;;;5040595;28;19913;-69
2021/04/30 08:17:33;;;;;;;;;;;19.90;49.80;;;;;;5023144;28;19923;-67
2021/04/30 08:19:59;;;;;;;;;;;20.00;49.90;;;;;;5009034;28;19963;-67
2021/04/30 08:22:25;;;;;;;;;;;20.00;49.90;;;;;;5033682;28;19921;-66
2021/04/30 08:24:51;;;;;;;;;;;19.90;49.90;;;;;;5025670;28;19913;-67
2021/04/30 08:27:18;;;;;;;;;;;19.90;49.70;;;;;;5043204;28;19975;-67
2021/04/30 08:29:44;;;;;;;;;;;20.00;49.70;;;;;;5028934;28;19913;-67
2021/04/30 08:32:09;;;;;;;;;;;20.00;49.70;;;;;;5031701;28;20008;-66
2021/04/30 08:34:35;;;;;;;;;;;19.90;49.70;;;;;;5023358;28;20530;-67
2021/04/30 08:37:00;;;;;;;;;;;20.00;49.70;;;;;;5026711;28;19913;-66
2021/04/30 08:39:26;;;;;;;;;;;20.00;49.70;;;;;;5025222;28;19983;-66
2021/04/30 08:41:51;;;;;;;;;;;19.90;49.60;;;;;;5022351;28;19924;-67
2021/04/30 08:44:17;;;;;;;;;;;20.00;49.70;;;;;;5004929;28;20265;-67
2021/04/30 08:46:42;;;;;;;;;;;20.00;49.60;;;;;;5022962;28;19937;-66
2021/04/30 08:49:10;;;;;;;;;;;20.00;49.60;;;;;;5026071;28;19928;-68
2021/04/30 08:51:35;;;;;;;;;;;20.00;49.60;;;;;;5042810;28;20509;-67
2021/04/30 08:54:01;;;;;;;;;;;20.00;49.60;;;;;;5025162;28;19941;-67
2021/04/30 08:56:26;;;;;;;;;;;20.00;49.50;;;;;;5027224;28;19913;-67
2021/04/30 08:58:52;;;;;;;;;;;20.00;49.50;;;;;;5024068;28;19923;-66
2021/04/30 09:01:18;;;;;;;;;;;20.00;49.50;;;;;;5039465;28;20505;-66
2021/04/30 09:03:43;;;;;;;;;;;20.00;49.50;;;;;;5029870;28;19949;-67
2021/04/30 09:06:09;;;;;;;;;;;20.00;49.40;;;;;;5034486;28;19922;-68
2021/04/30 09:08:44;;;;;;;;;;;20.00;49.50;;;;;;5028087;28;19952;-68
2021/04/30 09:11:10;;;;;;;;;;;20.00;49.50;;;;;;5025429;28;19917;-66
2021/04/30 09:13:40;;;;;;;;;;;20.00;49.40;;;;;;5034102;28;19935;-68
2021/04/30 09:16:05;;;;;;;;;;;20.00;49.40;;;;;;5026338;28;19921;-67
2021/04/30 09:18:32;;;;;;;;;;;20.00;49.40;;;;;;5021719;28;19924;-67
2021/04/30 09:21:08;;;;;;;;;;;20.00;49.40;;;;;;5021868;28;20004;-67
2021/04/30 09:23:34;;;;;;;;;;;20.00;49.40;;;;;;5021118;28;19923;-67
2021/04/30 09:26:00;;;;;;;;;;;20.00;49.40;;;;;;5006217;28;19963;-67
2021/04/30 09:28:26;;;;;;;;;;;20.00;49.40;;;;;;5008454;28;19920;-67
2021/04/30 09:30:51;;;;;;;;;;;20.00;49.40;;;;;;5024735;28;19932;-67
2021/04/30 09:33:18;;;;;;;;;;;20.00;49.40;;;;;;5042140;28;19944;-67
2021/04/30 09:35:44;;;;;;;;;;;20.00;49.40;;;;;;5025445;28;20026;-68
2021/04/30 09:38:25;;;;;;;;;;;19.90;49.30;;;;;;5010503;28;20015;-68
2021/04/30 09:40:51;;;;;;;;;;;20.00;49.30;;;;;;5026103;28;19933;-67
2021/04/30 09:43:17;;;;;;;;;;;20.00;49.30;;;;;;5026340;28;19963;-67
2021/04/30 09:45:45;;;;;;;;;;;20.00;49.30;;;;;;5024845;28;19921;-65
2021/04/30 09:48:10;;;;;;;;;;;20.00;49.30;;;;;;5025091;28;19917;-68
2021/04/30 09:50:36;;;;;;;;;;;19.90;49.80;;;;;;5038751;28;19971;-68
2021/04/30 09:53:03;;;;;;;;;;;19.90;49.20;;;;;;5028557;28;20327;-67
2021/04/30 09:55:40;;;;;;;;;;;20.00;49.20;;;;;;5023685;28;19920;-67
2021/04/30 09:58:12;;;;;;;;;;;20.00;49.30;;;;;;5017378;28;20398;-67
2021/04/30 10:00:38;;;;;;;;;;;20.00;49.30;;;;;;5026169;28;19967;-67
2021/04/30 10:03:13;;;;;;;;;;;20.00;49.30;;;;;;5011837;28;19917;-66
2021/04/30 10:05:56;;;;;;;;;;;20.00;49.20;;;;;;5045751;28;19920;-67
2021/04/30 10:08:22;;;;;;;;;;;19.90;49.90;;;;;;5045520;28;19913;-66
2021/04/30 10:10:47;;;;;;;;;;;19.90;49.20;;;;;;5007303;28;19920;-66
2021/04/30 10:13:13;;;;;;;;;;;20.00;49.30;;;;;;5028100;28;19921;-66
2021/04/30 10:15:38;;;;;;;;;;;19.90;49.20;;;;;;5045281;28;20573;-67
2021/04/30 10:18:04;;;;;;;;;;;20.00;49.30;;;;;;5027992;28;19978;-67
2021/04/30 10:20:29;;;;;;;;;;;20.00;49.20;;;;;;5043015;28;20000;-67
2021/04/30 10:22:57;;;;;;;;;;;20.00;49.20;;;;;;5023895;28;20683;-67
2021/04/30 10:25:22;;;;;;;;;;;20.00;49.20;;;;;;5033991;28;20395;-67
2021/04/30 10:27:52;;;;;;;;;;;20.00;49.20;;;;;;5024922;28;19921;-67
2021/04/30 10:30:36;;;;;;;;;;;20.00;49.20;;;;;;5025531;28;19939;-67
2021/04/30 10:33:14;;;;;;;;;;;20.00;49.90;;;;;;5027555;28;19979;-65
2021/04/30 10:35:43;;;;;;;;;;;20.00;49.20;;;;;;5024966;28;19999;-66
2021/04/30 10:38:09;;;;;;;;;;;20.00;49.20;;;;;;5023836;28;19943;-67
2021/04/30 10:40:35;;;;;;;;;;;20.00;49.20;;;;;;5024693;28;20008;-67
2021/04/30 10:43:16;;;;;;;;;;;20.00;49.20;;;;;;5026647;28;19917;-67
2021/04/30 10:45:41;;;;;;;;;;;20.00;49.20;;;;;;5044056;28;19917;-67
2021/04/30 10:48:07;;;;;;;;;;;20.00;49.20;;;;;;5007324;28;20446;-66
2021/04/30 10:50:33;;;;;;;;;;;20.00;49.20;;;;;;5031101;28;20047;-67
2021/04/30 10:53:17;;;;;;;;;;;19.90;49.10;;;;;;5027026;28;19920;-66
2021/04/30 10:55:44;;;;;;;;;;;20.00;49.20;;;;;;5026450;28;19925;-67
2021/04/30 10:58:09;;;;;;;;;;;20.00;49.20;;;;;;5025178;28;19943;-67
2021/04/30 11:00:37;;;;;;;;;;;20.00;49.20;;;;;;5027355;28;20557;-66
2021/04/30 11:03:12;;;;;;;;;;;20.00;49.20;;;;;;5027168;28;19917;-66
2021/04/30 11:05:49;;;;;;;;;;;20.00;49.20;;;;;;5026419;28;20554;-67
2021/04/30 11:08:15;;;;;;;;;;;19.90;49.10;;;;;;5026031;28;20434;-66
2021/04/30 11:10:40;;;;;;;;;;;19.90;49.10;;;;;;5033435;28;19913;-67
2021/04/30 11:13:16;;;;;;;;;;;19.90;49.10;;;;;;5026393;28;19979;-67
2021/04/30 11:15:48;;;;;;;;;;;19.90;49.10;;;;;;5043586;28;20403;-67
2021/04/30 11:18:19;;;;;;;;;;;19.90;49.10;;;;;;5023707;28;19943;-67
2021/04/30 11:20:55;;;;;;;;;;;19.90;49.10;;;;;;5023359;28;20496;-67
2021/04/30 11:23:22;;;;;;;;;;;20.00;49.10;;;;;;5022088;28;19920;-67
2021/04/30 11:25:54;;;;;;;;;;;20.00;49.10;;;;;;5034459;28;19975;-67
2021/04/30 11:28:20;;;;;;;;;;;19.90;49.40;;;;;;5029086;28;19921;-67
2021/04/30 11:30:58;;;;;;;;;;;19.90;49.00;;;;;;5026753;28;19971;-67
2021/04/30 11:33:23;;;;;;;;;;;19.90;49.10;;;;;;5044113;28;19987;-68
2021/04/30 11:35:49;;;;;;;;;;;19.90;49.00;;;;;;5026856;28;19917;-67
2021/04/30 11:38:15;;;;;;;;;;;19.90;49.00;;;;;;5023506;28;19917;-67
2021/04/30 11:40:40;;;;;;;;;;;19.90;49.10;;;;;;5033554;28;20346;-66
2021/04/30 11:43:06;;;;;;;;;;;19.90;49.10;;;;;;5029740;28;19914;-67
2021/04/30 11:45:32;;;;;;;;;;;19.90;49.00;;;;;;5026981;28;19917;-67
2021/04/30 11:47:58;;;;;;;;;;;19.90;49.00;;;;;;5030661;28;19999;-67
2021/04/30 11:50:23;;;;;;;;;;;19.90;49.10;;;;;;5033821;28;19917;-67
2021/04/30 11:52:49;;;;;;;;;;;19.90;49.10;;;;;;5025921;28;19923;-67
2021/04/30 11:55:16;;;;;;;;;;;19.90;49.10;;;;;;5043749;28;19913;-67
2021/04/30 11:57:42;;;;;;;;;;;19.80;49.10;;;;;;5024996;28;20640;-66
2021/04/30 12:00:11;;;;;;;;;;;19.90;49.10;;;;;;5026071;28;20011;-67
2021/04/30 12:02:37;;;;;;;;;;;19.90;49.10;;;;;;5044227;28;19935;-67
2021/04/30 12:05:02;;;;;;;;;;;19.90;49.10;;;;;;5043785;28;20371;-66
2021/04/30 12:07:29;;;;;;;;;;;19.90;49.10;;;;;;5043746;28;19912;-67
2021/04/30 12:09:54;;;;;;;;;;;19.90;49.50;;;;;;5043667;28;20536;-67
2021/04/30 12:12:21;;;;;;;;;;;19.90;49.10;;;;;;5022444;28;19913;-67
2021/04/30 12:14:47;;;;;;;;;;;19.90;49.10;;;;;;5036316;28;20007;-67
2021/04/30 12:17:39;;;;;;;;;;;19.90;49.10;;;;;;5025751;28;20001;-67
2021/04/30 12:20:09;;;;;;;;;;;19.90;49.10;;;;;;5020312;28;19917;-66
2021/04/30 12:22:34;;;;;;;;;;;19.80;49.10;;;;;;4998623;28;19913;-67
2021/04/30 12:25:16;;;;;;;;;;;19.90;49.10;;;;;;5034191;28;19914;-66
2021/04/30 12:27:41;;;;;;;;;;;19.90;49.10;;;;;;5023044;28;21181;-66
2021/04/30 12:30:07;;;;;;;;;;;19.90;49.10;;;;;;5023246;28;20343;-67
2021/04/30 12:32:32;;;;;;;;;;;19.90;49.00;;;;;;5021977;28;19928;-67
2021/04/30 12:34:58;;;;;;;;;;;19.80;49.00;;;;;;5031089;28;19913;-71
2021/04/30 12:37:23;;;;;;;;;;;19.90;49.10;;;;;;5024910;28;19917;-67
2021/04/30 12:39:49;;;;;;;;;;;19.90;49.10;;;;;;5042883;28;19917;-66
2021/04/30 12:42:14;;;;;;;;;;;19.90;49.10;;;;;;5025560;28;19912;-67
2021/04/30 12:44:56;;;;;;;;;;;19.90;49.00;;;;;;5021719;28;20000;-66
2021/04/30 12:47:24;;;;;;;;;;;19.90;49.10;;;;;;5021818;28;20353;-67
2021/04/30 12:49:50;;;;;;;;;;;19.80;49.00;;;;;;5021558;28;20302;-66
2021/04/30 12:52:18;;;;;;;;;;;19.80;49.00;;;;;;5035234;28;20008;-67
2021/04/30 12:54:44;;;;;;;;;;;19.80;49.10;;;;;;5025044;28;19920;-66
2021/04/30 12:57:09;;;;;;;;;;;19.80;49.10;;;;;;5025068;28;19917;-67
2021/04/30 12:59:35;;;;;;;;;;;19.80;49.10;;;;;;5043243;28;20586;-66
2021/04/30 13:02:07;;;;;;;;;;;19.80;49.10;;;;;;5043662;28;19920;-67
2021/04/30 13:04:32;;;;;;;;;;;19.90;49.20;;;;;;5038937;28;19971;-66
2021/04/30 13:06:58;;;;;;;;;;;19.80;49.10;;;;;;5025499;28;19917;-67
2021/04/30 13:09:23;;;;;;;;;;;19.80;49.10;;;;;;5025406;28;20640;-66
2021/04/30 13:12:18;;;;;;;;;;;19.80;49.10;;;;;;5010104;28;19917;-67
2021/04/30 13:14:44;;;;;;;;;;;19.80;49.10;;;;;;5027214;28;20277;-66
2021/04/30 13:17:15;;;;;;;;;;;19.80;49.10;;;;;;5029753;28;20447;-67
2021/04/30 13:19:41;;;;;;;;;;;19.80;49.10;;;;;;5044053;28;19940;-67
2021/04/30 13:22:11;;;;;;;;;;;19.80;49.10;;;;;;5027880;28;19967;-67
2021/04/30 13:24:38;;;;;;;;;;;19.80;49.10;;;;;;5018995;28;19921;-66
2021/04/30 13:27:07;;;;;;;;;;;19.80;49.10;;;;;;5012763;28;19921;-67
2021/04/30 13:29:33;;;;;;;;;;;19.80;49.20;;;;;;5040457;28;19917;-67
2021/04/30 13:31:59;;;;;;;;;;;19.80;49.20;;;;;;5026914;28;19921;-67
2021/04/30 13:34:32;;;;;;;;;;;19.80;49.10;;;;;;5026682;28;20025;-67
2021/04/30 13:36:58;;;;;;;;;;;19.80;49.10;;;;;;5037874;28;19968;-67
2021/04/30 13:39:27;;;;;;;;;;;19.80;49.10;;;;;;5028408;28;19916;-66
2021/04/30 13:41:52;;;;;;;;;;;19.80;49.20;;;;;;5028809;28;19924;-66
2021/04/30 13:44:20;;;;;;;;;;;19.80;49.20;;;;;;5028899;28;19916;-66
2021/04/30 13:46:49;;;;;;;;;;;19.80;49.20;;;;;;5035248;28;19913;-65
2021/04/30 13:49:14;;;;;;;;;;;19.80;49.20;;;;;;5022403;28;19921;-66
2021/04/30 13:51:40;;;;;;;;;;;19.80;49.20;;;;;;5026928;28;19944;-67
2021/04/30 13:54:05;;;;;;;;;;;19.80;49.20;;;;;;5012151;28;19920;-67
2021/04/30 13:56:31;;;;;;;;;;;19.80;49.20;;;;;;5028520;28;19970;-67
2021/04/30 13:59:02;;;;;;;;;;;19.80;49.20;;;;;;5037467;28;19998;-67
2021/04/30 14:01:28;;;;;;;;;;;19.80;49.20;;;;;;5025300;28;19921;-67
2021/04/30 14:03:53;;;;;;;;;;;19.80;49.20;;;;;;5033692;28;19920;-66
2021/04/30 14:06:18;;;;;;;;;;;19.80;49.20;;;;;;5030563;28;19940;-67
2021/04/30 14:08:44;;;;;;;;;;;19.70;49.20;;;;;;5035029;28;20013;-67
2021/04/30 14:11:09;;;;;;;;;;;19.80;49.20;;;;;;5027740;28;19913;-67
2021/04/30 14:13:35;;;;;;;;;;;19.80;49.30;;;;;;5036406;28;20368;-67